createdAt,value
2023-10-18T00:01:16.140Z,66.56
2023-10-18T00:03:46.009Z,66.73
2023-10-18T00:06:22.766Z,66.88
2023-10-18T00:08:58.823Z,66.78
2023-10-18T00:11:33.995Z,66.92
2023-10-18T00:14:05.938Z,66.98
2023-10-18T00:16:36.773Z,67.03
2023-10-18T00:19:06.701Z,66.98
2023-10-18T00:21:36.850Z,67.03
2023-10-18T00:24:08.306Z,67.04
2023-10-18T00:26:40.852Z,66.87
2023-10-18T00:29:11.743Z,67.03
2023-10-18T00:31:41.641Z,66.92
2023-10-18T00:34:13.905Z,66.94
2023-10-18T00:36:47.229Z,66.98
2023-10-18T00:39:27.523Z,67.16
2023-10-18T00:42:18.254Z,67.27
2023-10-18T00:44:56.201Z,67.43
2023-10-18T00:47:27.514Z,67.49
2023-10-18T00:49:57.440Z,67.55
2023-10-18T00:52:31.262Z,67.61
2023-10-18T00:55:01.160Z,67.61
2023-10-18T00:57:48.598Z,67.78
2023-10-18T01:00:25.845Z,67.62
2023-10-18T01:03:00.701Z,67.73
2023-10-18T01:05:33.116Z,67.63
2023-10-18T01:08:08.041Z,67.64
2023-10-18T01:10:38.678Z,67.81
2023-10-18T01:13:11.064Z,67.87
2023-10-18T01:15:45.214Z,68.03
2023-10-18T01:18:15.072Z,68.15
2023-10-18T01:20:47.501Z,68.23
2023-10-18T01:23:21.137Z,68.17
2023-10-18T01:25:50.931Z,68.27
2023-10-18T01:28:24.310Z,68.27
2023-10-18T01:30:54.164Z,68.25
2023-10-18T01:33:24.080Z,68.41
2023-10-18T01:35:54.958Z,68.43
2023-10-18T01:38:30.878Z,68.54
2023-10-18T01:41:10.413Z,68.51
2023-10-18T01:43:44.707Z,68.74
2023-10-18T01:46:16.792Z,68.69
2023-10-18T01:48:56.527Z,68.78
2023-10-18T01:51:28.790Z,68.89
2023-10-18T01:54:03.921Z,68.75
2023-10-18T01:56:36.304Z,68.80
2023-10-18T01:59:15.970Z,68.78
2023-10-18T02:01:52.922Z,68.82
2023-10-18T02:04:49.539Z,68.92
2023-10-18T02:07:23.647Z,68.98
2023-10-18T02:09:59.728Z,69.21
2023-10-18T02:12:30.813Z,69.19
2023-10-18T02:15:08.184Z,69.34
2023-10-18T02:17:41.173Z,69.28
2023-10-18T02:20:32.358Z,69.30
2023-10-18T02:23:02.833Z,69.39
2023-10-18T02:25:42.379Z,69.39
2023-10-18T02:28:28.369Z,69.38
2023-10-18T02:31:10.337Z,69.36
2023-10-18T02:33:46.348Z,69.41
2023-10-18T02:36:33.424Z,69.42
2023-10-18T02:39:04.448Z,69.46
2023-10-18T02:41:35.765Z,69.41
2023-10-18T02:44:23.163Z,69.53
2023-10-18T02:46:52.775Z,69.51
2023-10-18T02:49:25.208Z,69.59
2023-10-18T02:51:55.285Z,69.28
2023-10-18T02:54:26.313Z,69.33
2023-10-18T02:56:56.788Z,69.30
2023-10-18T02:59:28.880Z,69.43
2023-10-18T03:02:02.386Z,69.72
2023-10-18T03:04:35.826Z,69.84
2023-10-18T03:07:09.880Z,69.86
2023-10-18T03:09:39.767Z,69.85
2023-10-18T03:12:15.991Z,69.87
2023-10-18T03:14:57.101Z,69.86
2023-10-18T03:17:30.499Z,69.84
2023-10-18T03:20:02.865Z,69.94
2023-10-18T03:22:33.075Z,69.85
2023-10-18T03:25:10.469Z,69.70
2023-10-18T03:27:43.048Z,69.63
2023-10-18T03:30:19.356Z,69.88
2023-10-18T03:32:51.651Z,69.81
2023-10-18T03:35:22.726Z,69.93
2023-10-18T03:37:58.045Z,70.02
2023-10-18T03:40:36.181Z,69.82
2023-10-18T03:43:10.938Z,69.96
2023-10-18T03:45:58.401Z,69.91
2023-10-18T03:48:30.586Z,69.83
2023-10-18T03:51:02.702Z,69.58
2023-10-18T03:53:32.524Z,69.65
2023-10-18T03:56:06.115Z,69.69
2023-10-18T03:58:37.234Z,69.45
2023-10-18T04:01:07.312Z,69.57
2023-10-18T04:03:37.120Z,69.59
2023-10-18T04:06:09.283Z,69.53
2023-10-18T04:08:39.141Z,69.41
2023-10-18T04:11:09.543Z,69.37
2023-10-18T04:13:39.278Z,69.34
2023-10-18T04:16:14.049Z,69.39
2023-10-18T04:18:46.742Z,69.28
2023-10-18T04:21:17.239Z,69.28
2023-10-18T04:23:47.825Z,69.28
2023-10-18T04:26:22.546Z,69.24
2023-10-18T04:28:58.543Z,69.36
2023-10-18T04:31:28.549Z,69.44
2023-10-18T04:33:59.226Z,69.67
2023-10-18T04:36:30.576Z,69.64
2023-10-18T04:39:04.098Z,69.56
2023-10-18T04:41:37.882Z,69.67
2023-10-18T04:44:11.617Z,69.69
2023-10-18T04:46:41.509Z,69.59
2023-10-18T04:49:16.485Z,69.46
2023-10-18T04:51:46.536Z,69.61
2023-10-18T04:54:36.250Z,69.65
2023-10-18T04:57:08.586Z,69.70
2023-10-18T04:59:47.475Z,69.95
2023-10-18T05:02:27.743Z,69.96
2023-10-18T05:04:58.563Z,69.89
2023-10-18T05:07:48.658Z,69.87
2023-10-18T05:10:23.246Z,69.79
2023-10-18T05:12:55.006Z,69.97
2023-10-18T05:15:31.579Z,69.88
2023-10-18T05:18:16.359Z,69.92
2023-10-18T05:20:55.642Z,69.86
2023-10-18T05:23:28.365Z,69.80
2023-10-18T05:26:12.919Z,69.88
2023-10-18T05:28:51.270Z,69.97
2023-10-18T05:31:27.557Z,70.03
2023-10-18T05:34:08.174Z,70.17
2023-10-18T05:36:47.024Z,70.13
2023-10-18T05:39:25.849Z,70.09
2023-10-18T05:42:04.735Z,70.12
2023-10-18T05:44:34.804Z,70.02
2023-10-18T05:47:09.344Z,70.09
2023-10-18T05:49:42.547Z,70.17
2023-10-18T05:52:12.525Z,70.12
2023-10-18T05:54:45.308Z,70.22
2023-10-18T05:57:21.063Z,70.19
2023-10-18T05:59:51.408Z,70.26
2023-10-18T06:02:24.897Z,70.17
2023-10-18T06:04:57.654Z,70.19
2023-10-18T06:07:28.103Z,70.08
2023-10-18T06:09:59.858Z,70.20
2023-10-18T06:12:38.516Z,70.10
2023-10-18T06:15:17.521Z,70.23
2023-10-18T06:17:48.767Z,70.35
2023-10-18T06:20:28.735Z,70.35
2023-10-18T06:23:10.226Z,70.32
2023-10-18T06:25:46.821Z,70.36
2023-10-18T06:28:25.963Z,70.50
2023-10-18T06:30:58.271Z,70.47
2023-10-18T06:33:36.551Z,70.57
2023-10-18T06:36:13.522Z,70.39
2023-10-18T06:38:49.878Z,70.29
2023-10-18T06:41:20.383Z,70.61
2023-10-18T06:43:51.134Z,70.47
2023-10-18T06:46:28.803Z,70.47
2023-10-18T06:49:11.618Z,70.45
2023-10-18T06:51:42.626Z,70.41
2023-10-18T06:54:16.281Z,70.33
2023-10-18T06:56:49.266Z,70.28
2023-10-18T06:59:27.095Z,70.43
2023-10-18T07:01:59.824Z,70.32
2023-10-18T07:04:36.479Z,70.11
2023-10-18T07:07:12.764Z,70.05
2023-10-18T07:09:45.725Z,70.17
2023-10-18T07:12:18.937Z,70.28
2023-10-18T07:14:48.738Z,70.10
2023-10-18T07:17:22.882Z,70.03
2023-10-18T07:20:01.737Z,69.98
2023-10-18T07:22:45.429Z,69.85
2023-10-18T07:25:22.584Z,69.92
2023-10-18T07:27:56.837Z,69.95
2023-10-18T07:30:42.495Z,69.92
2023-10-18T07:33:13.714Z,69.90
2023-10-18T07:35:46.800Z,69.82
2023-10-18T07:38:27.000Z,69.90
2023-10-18T07:41:04.363Z,69.91
2023-10-18T07:43:37.050Z,69.92
2023-10-18T07:46:10.974Z,69.78
2023-10-18T07:48:47.426Z,69.77
2023-10-18T07:51:28.265Z,69.71
2023-10-18T07:53:59.002Z,69.60
2023-10-18T07:56:33.845Z,69.54
2023-10-18T07:59:20.631Z,69.43
2023-10-18T08:02:09.059Z,69.54
2023-10-18T08:04:40.197Z,69.59
2023-10-18T08:07:16.404Z,69.41
2023-10-18T08:09:49.735Z,69.44
2023-10-18T08:12:25.977Z,69.46
2023-10-18T08:14:56.388Z,69.46
2023-10-18T08:17:32.236Z,69.40
2023-10-18T08:20:22.145Z,69.34
2023-10-18T08:22:54.790Z,69.22
2023-10-18T08:25:33.133Z,68.84
2023-10-18T08:28:07.491Z,68.71
2023-10-18T08:31:00.388Z,68.65
2023-10-18T08:33:32.597Z,68.34
2023-10-18T08:36:08.481Z,68.35
2023-10-18T08:38:38.348Z,68.15
2023-10-18T08:41:17.451Z,68.11
2023-10-18T08:44:00.202Z,68.26
2023-10-18T08:46:38.281Z,67.94
2023-10-18T08:49:16.357Z,68.11
2023-10-18T08:51:48.039Z,67.84
2023-10-18T08:54:21.362Z,67.75
2023-10-18T08:56:53.445Z,67.60
2023-10-18T08:59:25.386Z,67.58
2023-10-18T09:02:13.857Z,67.42
2023-10-18T09:04:46.995Z,67.32
2023-10-18T09:07:26.034Z,67.22
2023-10-18T09:09:59.971Z,67.13
2023-10-18T09:12:57.127Z,67.19
2023-10-18T09:15:48.727Z,66.86
2023-10-18T09:18:23.274Z,66.89
2023-10-18T09:20:56.533Z,66.65
2023-10-18T09:23:31.342Z,66.75
2023-10-18T09:26:06.089Z,66.67
2023-10-18T09:28:38.262Z,66.88
2023-10-18T09:31:12.318Z,66.59
2023-10-18T09:33:53.398Z,66.58
2023-10-18T09:36:25.613Z,66.44
2023-10-18T09:38:56.382Z,66.40
2023-10-18T09:41:32.437Z,66.39
2023-10-18T09:44:03.023Z,66.11
2023-10-18T09:46:34.228Z,66.06
2023-10-18T09:49:11.233Z,66.01
2023-10-18T09:51:45.892Z,65.65
2023-10-18T09:54:22.858Z,65.51
2023-10-18T09:56:56.756Z,65.50
2023-10-18T09:59:32.536Z,65.68
2023-10-18T10:02:09.999Z,65.56
2023-10-18T10:04:44.265Z,65.19
2023-10-18T10:07:38.322Z,65.10
2023-10-18T10:10:10.581Z,65.04
2023-10-18T10:12:43.671Z,65.03
2023-10-18T10:15:18.742Z,64.68
2023-10-18T10:18:02.288Z,64.74
2023-10-18T10:20:34.881Z,64.53
2023-10-18T10:23:18.787Z,64.56
2023-10-18T10:26:22.483Z,64.70
2023-10-18T10:29:06.977Z,64.24
2023-10-18T10:31:56.043Z,64.14
2023-10-18T10:34:28.275Z,64.21
2023-10-18T10:37:10.067Z,64.22
2023-10-18T10:39:45.672Z,64.22
2023-10-18T10:42:42.794Z,63.89
2023-10-18T10:45:36.886Z,63.74
2023-10-18T10:48:33.624Z,63.90
2023-10-18T10:51:09.483Z,63.61
2023-10-18T10:53:49.820Z,63.40
2023-10-18T10:56:29.088Z,63.48
2023-10-18T10:59:04.840Z,63.38
2023-10-18T11:01:56.225Z,63.43
2023-10-18T11:04:50.450Z,63.01
2023-10-18T11:07:24.172Z,62.90
2023-10-18T11:10:06.970Z,62.48
2023-10-18T11:12:37.551Z,62.67
2023-10-18T11:15:17.422Z,62.49
2023-10-18T11:17:49.981Z,62.39
2023-10-18T11:20:30.867Z,62.40
2023-10-18T11:23:02.119Z,62.47
2023-10-18T11:25:35.177Z,62.23
2023-10-18T11:28:23.023Z,62.11
2023-10-18T11:30:57.998Z,62.23
2023-10-18T11:33:48.219Z,62.10
2023-10-18T11:36:21.950Z,62.19
2023-10-18T11:39:09.911Z,61.79
2023-10-18T11:41:40.189Z,61.34
2023-10-18T11:44:15.267Z,61.23
2023-10-18T11:46:51.728Z,61.39
2023-10-18T11:49:22.307Z,61.36
2023-10-18T11:51:55.195Z,61.53
2023-10-18T11:54:34.681Z,61.38
2023-10-18T11:57:08.363Z,60.89
2023-10-18T11:59:54.910Z,60.87
2023-10-18T12:02:30.620Z,60.75
2023-10-18T12:05:00.614Z,60.65
2023-10-18T12:07:33.905Z,60.37
2023-10-18T12:10:16.748Z,60.46
2023-10-18T12:12:50.837Z,60.51
2023-10-18T12:15:26.949Z,60.35
2023-10-18T12:17:57.273Z,60.20
2023-10-18T12:20:36.140Z,60.43
2023-10-18T12:23:33.923Z,60.42
2023-10-18T12:26:07.590Z,60.35
2023-10-18T12:28:38.515Z,60.43
2023-10-18T12:31:14.953Z,60.28
2023-10-18T12:33:50.543Z,59.98
2023-10-18T12:36:24.154Z,60.27
2023-10-18T12:38:59.608Z,59.98
2023-10-18T12:41:33.358Z,60.01
2023-10-18T12:44:04.465Z,60.18
2023-10-18T12:46:36.578Z,60.14
2023-10-18T12:49:06.842Z,60.05
2023-10-18T12:51:41.775Z,59.92
2023-10-18T12:54:20.444Z,59.88
2023-10-18T12:57:09.739Z,59.98
2023-10-18T13:00:03.473Z,60.02
2023-10-18T13:02:52.001Z,59.86
2023-10-18T13:05:23.039Z,59.97
2023-10-18T13:07:55.694Z,59.83
2023-10-18T13:10:32.661Z,59.60
2023-10-18T13:13:17.923Z,59.41
2023-10-18T13:15:50.016Z,59.34
2023-10-18T13:18:19.830Z,59.40
2023-10-18T13:20:50.396Z,59.53
2023-10-18T13:23:28.546Z,59.01
2023-10-18T13:25:58.827Z,59.33
2023-10-18T13:28:35.139Z,59.42
2023-10-18T13:31:08.939Z,59.40
2023-10-18T13:33:40.101Z,59.24
2023-10-18T13:36:15.284Z,59.59
2023-10-18T13:38:45.270Z,59.21
2023-10-18T13:41:17.412Z,59.16
2023-10-18T13:43:49.750Z,59.12
2023-10-18T13:46:24.815Z,59.11
2023-10-18T13:48:54.519Z,59.10
2023-10-18T13:51:26.957Z,59.01
2023-10-18T13:53:57.770Z,59.14
2023-10-18T13:56:28.136Z,59.11
2023-10-18T13:59:00.205Z,59.22
2023-10-18T14:01:30.113Z,59.05
2023-10-18T14:04:03.143Z,59.09
2023-10-18T14:06:51.402Z,59.04
2023-10-18T14:09:25.630Z,59.05
2023-10-18T14:11:55.580Z,59.07
2023-10-18T14:14:25.654Z,59.09
2023-10-18T14:16:55.640Z,59.25
2023-10-18T14:19:26.237Z,59.11
2023-10-18T14:21:56.159Z,59.06
2023-10-18T14:24:30.175Z,59.01
2023-10-18T14:27:04.955Z,59.11
2023-10-18T14:29:35.038Z,59.01
2023-10-18T14:32:10.213Z,59.11
2023-10-18T14:34:40.444Z,59.19
2023-10-18T14:37:10.543Z,59.32
2023-10-18T14:39:40.418Z,59.24
2023-10-18T14:42:10.446Z,59.39
2023-10-18T14:44:42.821Z,59.33
2023-10-18T14:47:15.107Z,59.28
2023-10-18T14:49:48.287Z,59.53
2023-10-18T14:52:21.116Z,59.51
2023-10-18T14:54:54.212Z,59.38
2023-10-18T14:57:25.091Z,59.35
2023-10-18T14:59:55.879Z,59.50
2023-10-18T15:02:26.141Z,59.30
2023-10-18T15:04:56.429Z,59.26
2023-10-18T15:07:29.793Z,59.33
2023-10-18T15:10:03.422Z,59.67
2023-10-18T15:12:33.294Z,59.70
2023-10-18T15:15:03.285Z,59.83
2023-10-18T15:17:33.498Z,60.04
2023-10-18T15:20:03.966Z,60.06
2023-10-18T15:22:35.074Z,60.38
2023-10-18T15:25:06.560Z,60.30
2023-10-18T15:27:36.587Z,60.54
2023-10-18T15:30:11.137Z,60.36
2023-10-18T15:32:40.986Z,61.02
2023-10-18T15:35:14.458Z,61.31
2023-10-18T15:37:44.773Z,61.45
2023-10-18T15:40:16.357Z,61.41
2023-10-18T15:42:49.383Z,61.57
2023-10-18T15:45:19.143Z,61.78
2023-10-18T15:47:49.123Z,61.68
2023-10-18T15:50:20.404Z,61.78
2023-10-18T15:52:50.217Z,61.78
2023-10-18T15:55:20.298Z,61.67
2023-10-18T15:57:54.195Z,61.77
2023-10-18T16:00:29.245Z,61.89
2023-10-18T16:03:00.150Z,62.07
2023-10-18T16:05:32.258Z,62.04
2023-10-18T16:08:02.206Z,61.86
2023-10-18T16:10:34.199Z,62.03
2023-10-18T16:13:04.151Z,62.25
2023-10-18T16:15:35.975Z,62.31
2023-10-18T16:18:08.928Z,62.11
2023-10-18T16:20:39.013Z,61.82
2023-10-18T16:23:11.338Z,61.94
2023-10-18T16:25:44.481Z,61.70
2023-10-18T16:28:14.825Z,61.74
2023-10-18T16:30:45.108Z,61.89
2023-10-18T16:33:17.125Z,62.21
2023-10-18T16:35:46.967Z,62.34
2023-10-18T16:38:22.649Z,62.73
2023-10-18T16:41:06.730Z,62.77
2023-10-18T16:43:40.276Z,62.66
2023-10-18T16:46:12.576Z,62.75
2023-10-18T16:48:44.741Z,62.77
2023-10-18T16:51:17.549Z,62.98
2023-10-18T16:53:48.104Z,62.98
2023-10-18T16:56:19.665Z,63.12
2023-10-18T16:58:49.935Z,63.02
2023-10-18T17:01:22.150Z,63.26
2023-10-18T17:03:53.055Z,63.44
2023-10-18T17:06:23.183Z,63.44
2023-10-18T17:08:58.806Z,63.78
2023-10-18T17:11:34.242Z,64.23
2023-10-18T17:14:04.683Z,64.64
2023-10-18T17:16:35.118Z,65.11
2023-10-18T17:19:05.351Z,65.45
2023-10-18T17:21:36.762Z,65.87
2023-10-18T17:24:10.373Z,66.06
2023-10-18T17:26:40.285Z,66.57
2023-10-18T17:29:10.880Z,66.52
2023-10-18T17:31:40.879Z,67.20
2023-10-18T17:34:12.788Z,67.22
2023-10-18T17:36:42.874Z,67.33
2023-10-18T17:39:16.625Z,67.71
2023-10-18T17:41:46.819Z,67.97
2023-10-18T17:44:17.707Z,68.39
2023-10-18T17:46:49.332Z,68.68
2023-10-18T17:49:19.576Z,68.69
2023-10-18T17:51:52.722Z,68.96
2023-10-18T17:54:26.830Z,68.93
2023-10-18T17:57:00.160Z,69.39
2023-10-18T17:59:30.267Z,69.46
2023-10-18T18:02:02.515Z,69.63
2023-10-18T18:04:34.937Z,69.98
2023-10-18T18:07:05.984Z,70.28
2023-10-18T18:09:35.773Z,70.37
2023-10-18T18:12:08.634Z,70.78
2023-10-18T18:14:42.748Z,71.20
2023-10-18T18:17:14.770Z,71.30
2023-10-18T18:19:44.980Z,71.63
2023-10-18T18:22:14.949Z,71.95
2023-10-18T18:24:44.697Z,72.05
2023-10-18T18:27:14.517Z,72.41
2023-10-18T18:29:49.316Z,72.50
2023-10-18T18:32:22.468Z,72.92
2023-10-18T18:34:53.553Z,73.09
2023-10-18T18:37:24.039Z,73.30
2023-10-18T18:39:53.952Z,73.66
2023-10-18T18:42:28.878Z,73.74
2023-10-18T18:45:01.303Z,73.93
2023-10-18T18:47:34.806Z,74.53
2023-10-18T18:50:09.728Z,75.14
2023-10-18T18:52:41.089Z,74.72
2023-10-18T18:55:12.322Z,75.18
2023-10-18T18:57:43.720Z,75.40
2023-10-18T19:00:17.101Z,75.45
2023-10-18T19:02:54.529Z,75.84
2023-10-18T19:05:25.544Z,76.15
2023-10-18T19:07:57.989Z,76.00
2023-10-18T19:10:32.764Z,76.25
2023-10-18T19:13:03.272Z,76.52
2023-10-18T19:15:34.128Z,76.58
2023-10-18T19:18:04.790Z,76.38
2023-10-18T19:20:34.684Z,76.61
2023-10-18T19:23:04.673Z,76.64
2023-10-18T19:25:34.588Z,77.12
2023-10-18T19:28:08.658Z,76.94
2023-10-18T19:30:42.425Z,77.19
2023-10-18T19:33:14.662Z,77.22
2023-10-18T19:35:47.473Z,77.17
2023-10-18T19:38:17.393Z,77.60
2023-10-18T19:40:47.383Z,77.78
2023-10-18T19:43:17.196Z,77.39
2023-10-18T19:45:49.740Z,77.60
2023-10-18T19:48:19.632Z,77.82
2023-10-18T19:50:49.649Z,77.85
2023-10-18T19:53:19.473Z,77.84
2023-10-18T19:55:51.652Z,78.06
2023-10-18T19:58:24.157Z,78.14
2023-10-18T20:00:56.874Z,78.13
2023-10-18T20:03:29.258Z,78.16
2023-10-18T20:06:03.157Z,78.31
2023-10-18T20:08:33.080Z,78.44
2023-10-18T20:11:10.308Z,78.61
2023-10-18T20:13:41.296Z,78.90
2023-10-18T20:16:15.920Z,78.72
2023-10-18T20:18:45.770Z,78.65
2023-10-18T20:21:17.804Z,78.80
2023-10-18T20:23:47.610Z,78.88
2023-10-18T20:26:29.071Z,78.68
2023-10-18T20:28:59.916Z,78.86
2023-10-18T20:31:35.313Z,79.09
2023-10-18T20:34:05.206Z,78.89
2023-10-18T20:36:35.546Z,78.81
2023-10-18T20:39:05.434Z,78.79
2023-10-18T20:41:35.335Z,78.94
2023-10-18T20:44:19.240Z,79.18
2023-10-18T20:46:50.070Z,79.19
2023-10-18T20:49:25.964Z,79.17
2023-10-18T20:51:59.307Z,79.11
2023-10-18T20:54:34.319Z,79.08
2023-10-18T20:57:12.741Z,79.18
2023-10-18T20:59:44.464Z,79.33
2023-10-18T21:02:20.123Z,79.44
2023-10-18T21:04:50.461Z,79.16
2023-10-18T21:07:26.588Z,79.17
2023-10-18T21:09:58.684Z,79.14
2023-10-18T21:12:29.114Z,79.25
2023-10-18T21:14:58.876Z,79.28
2023-10-18T21:17:28.810Z,79.38
2023-10-18T21:19:58.686Z,79.48
2023-10-18T21:22:28.691Z,79.86
2023-10-18T21:25:01.306Z,79.72
2023-10-18T21:27:34.302Z,79.79
2023-10-18T21:30:11.954Z,79.70
2023-10-18T21:32:43.871Z,79.72
2023-10-18T21:35:16.876Z,79.92
2023-10-18T21:37:49.554Z,79.85
2023-10-18T21:40:21.572Z,79.96
2023-10-18T21:42:51.916Z,80.02
2023-10-18T21:45:21.817Z,80.04
2023-10-18T21:47:53.305Z,79.91
2023-10-18T21:50:25.755Z,79.77
2023-10-18T21:52:57.862Z,80.05
2023-10-18T21:55:30.199Z,80.15
2023-10-18T21:58:00.176Z,80.17
2023-10-18T22:00:32.002Z,79.94
2023-10-18T22:03:02.685Z,80.36
2023-10-18T22:05:36.980Z,80.14
2023-10-18T22:08:12.083Z,80.76
2023-10-18T22:10:46.203Z,80.39
2023-10-18T22:13:24.000Z,80.44
2023-10-18T22:16:05.022Z,80.29
2023-10-18T22:18:39.001Z,80.10
2023-10-18T22:21:09.376Z,80.34
2023-10-18T22:23:47.034Z,80.16
2023-10-18T22:26:21.896Z,80.30
2023-10-18T22:28:54.751Z,80.40
2023-10-18T22:31:27.707Z,80.42
2023-10-18T22:33:57.829Z,80.51
2023-10-18T22:36:28.406Z,80.51
2023-10-18T22:39:01.985Z,80.57
2023-10-18T22:41:37.600Z,80.65
2023-10-18T22:44:11.769Z,80.72
2023-10-18T22:46:42.148Z,80.78
2023-10-18T22:49:23.028Z,80.68
2023-10-18T22:52:14.877Z,80.74
2023-10-18T22:54:47.093Z,80.92
2023-10-18T22:57:26.372Z,80.90
2023-10-18T22:59:57.160Z,81.20
2023-10-18T23:02:29.180Z,81.31
2023-10-18T23:05:02.299Z,81.26
2023-10-18T23:07:33.708Z,81.53
2023-10-18T23:10:10.005Z,81.50
2023-10-18T23:12:44.025Z,81.35
2023-10-18T23:15:20.830Z,81.47
2023-10-18T23:17:56.406Z,81.72
2023-10-18T23:20:35.677Z,81.39
2023-10-18T23:23:08.644Z,81.48
2023-10-18T23:25:59.507Z,81.21
2023-10-18T23:28:34.270Z,81.22
2023-10-18T23:31:09.031Z,81.45
2023-10-18T23:33:50.655Z,81.21
2023-10-18T23:36:26.295Z,81.06
2023-10-18T23:39:05.746Z,80.96
2023-10-18T23:41:42.858Z,80.82
2023-10-18T23:44:18.154Z,81.04
2023-10-18T23:46:48.226Z,80.93
2023-10-18T23:49:27.893Z,80.71
2023-10-18T23:52:18.702Z,80.72
2023-10-18T23:54:52.952Z,80.70
2023-10-18T23:57:33.540Z,80.38
